sensor_id;sensor_type;location;lat;lon;timestamp;pressure;altitude;pressure_sealevel;temperature;humidity
38022;BME280;23832;43.216;27.946;2022-12-18T00:02:01;101425.84;;;16.88;100.00
38022;BME280;23832;43.216;27.946;2022-12-18T00:04:14;101425.84;;;16.88;100.00
38022;BME280;23832;43.216;27.946;2022-12-18T00:06:17;101432.19;;;16.87;100.00
38022;BME280;23832;43.216;27.946;2022-12-18T00:08:20;101439.56;;;16.85;100.00
38022;BME280;23832;43.216;27.946;2022-12-18T00:10:21;101445.91;;;16.84;100.00
38022;BME280;23832;43.216;27.946;2022-12-18T00:12:23;101452.25;;;16.83;100.00
38022;BME280;23832;43.216;27.946;2022-12-18T00:14:25;101455.09;;;16.82;100.00
38022;BME280;23832;43.216;27.946;2022-12-18T00:16:27;101449.94;;;16.80;100.00
38022;BME280;23832;43.216;27.946;2022-12-18T00:18:30;101452.63;;;16.80;100.00
38022;BME280;23832;43.216;27.946;2022-12-18T00:20:36;101451.78;;;16.80;99.91
38022;BME280;23832;43.216;27.946;2022-12-18T00:22:38;101456.28;;;16.79;99.26
38022;BME280;23832;43.216;27.946;2022-12-18T00:24:40;101461.00;;;16.77;98.51
38022;BME280;23832;43.216;27.946;2022-12-18T00:26:41;101458.34;;;16.77;97.74
38022;BME280;23832;43.216;27.946;2022-12-18T00:28:43;101460.38;;;16.75;96.81
38022;BME280;23832;43.216;27.946;2022-12-18T00:30:45;101462.41;;;16.73;96.07
38022;BME280;23832;43.216;27.946;2022-12-18T00:32:47;101466.91;;;16.72;95.55
38022;BME280;23832;43.216;27.946;2022-12-18T00:34:49;101473.44;;;16.70;95.38
38022;BME280;23832;43.216;27.946;2022-12-18T00:36:54;101484.09;;;16.70;95.71
38022;BME280;23832;43.216;27.946;2022-12-18T00:38:56;101494.06;;;16.68;95.40
38022;BME280;23832;43.216;27.946;2022-12-18T00:40:58;101507.38;;;16.68;94.80
38022;BME280;23832;43.216;27.946;2022-12-18T00:43:00;101500.41;;;16.67;95.08
38022;BME280;23832;43.216;27.946;2022-12-18T00:45:00;101497.75;;;16.67;95.47
38022;BME280;23832;43.216;27.946;2022-12-18T00:47:03;101489.16;;;16.65;95.67
38022;BME280;23832;43.216;27.946;2022-12-18T00:49:04;101483.81;;;16.65;95.83
38022;BME280;23832;43.216;27.946;2022-12-18T00:51:06;101491.00;;;16.64;94.77
38022;BME280;23832;43.216;27.946;2022-12-18T00:53:13;101496.50;;;16.63;94.52
38022;BME280;23832;43.216;27.946;2022-12-18T00:55:17;101497.50;;;16.62;94.28
38022;BME280;23832;43.216;27.946;2022-12-18T00:57:19;101493.19;;;16.61;94.20
38022;BME280;23832;43.216;27.946;2022-12-18T00:59:21;101500.56;;;16.59;93.34
38022;BME280;23832;43.216;27.946;2022-12-18T01:01:22;101505.06;;;16.58;93.16
38022;BME280;23832;43.216;27.946;2022-12-18T01:03:24;101506.06;;;16.57;92.70
38022;BME280;23832;43.216;27.946;2022-12-18T01:05:25;101519.56;;;16.56;92.62
38022;BME280;23832;43.216;27.946;2022-12-18T01:07:27;101516.28;;;16.54;92.13
38022;BME280;23832;43.216;27.946;2022-12-18T01:09:30;101515.44;;;16.53;92.04
38022;BME280;23832;43.216;27.946;2022-12-18T01:11:33;101520.31;;;16.50;92.41
38022;BME280;23832;43.216;27.946;2022-12-18T01:13:34;101516.03;;;16.49;92.45
38022;BME280;23832;43.216;27.946;2022-12-18T01:15:36;101524.00;;;16.49;92.77
38022;BME280;23832;43.216;27.946;2022-12-18T01:17:37;101525.03;;;16.48;92.86
38022;BME280;23832;43.216;27.946;2022-12-18T01:19:39;101531.38;;;16.46;92.81
38022;BME280;23832;43.216;27.946;2022-12-18T01:21:41;101537.69;;;16.45;92.34
38022;BME280;23832;43.216;27.946;2022-12-18T01:23:45;101537.03;;;16.43;92.75
38022;BME280;23832;43.216;27.946;2022-12-18T01:25:48;101542.38;;;16.43;93.09
38022;BME280;23832;43.216;27.946;2022-12-18T01:27:50;101540.72;;;16.42;93.38
38022;BME280;23832;43.216;27.946;2022-12-18T01:29:51;101539.06;;;16.41;92.82
38022;BME280;23832;43.216;27.946;2022-12-18T01:31:54;101525.16;;;16.39;91.76
38022;BME280;23832;43.216;27.946;2022-12-18T01:33:56;101528.81;;;16.38;91.58
38022;BME280;23832;43.216;27.946;2022-12-18T01:35:58;101528.19;;;16.36;92.13
38022;BME280;23832;43.216;27.946;2022-12-18T01:38:00;101529.19;;;16.35;92.55
38022;BME280;23832;43.216;27.946;2022-12-18T01:40:02;101534.50;;;16.35;92.69
38022;BME280;23832;43.216;27.946;2022-12-18T01:42:08;101537.16;;;16.35;92.19
38022;BME280;23832;43.216;27.946;2022-12-18T01:46:26;101543.88;;;16.31;92.43
38022;BME280;23832;43.216;27.946;2022-12-18T01:48:28;101548.59;;;16.29;92.19
38022;BME280;23832;43.216;27.946;2022-12-18T01:50:32;101544.28;;;16.28;92.07
38022;BME280;23832;43.216;27.946;2022-12-18T01:52:35;101556.91;;;16.26;91.83
38022;BME280;23832;43.216;27.946;2022-12-18T01:54:37;101561.59;;;16.24;92.31
38022;BME280;23832;43.216;27.946;2022-12-18T01:56:39;101569.59;;;16.24;92.53
38022;BME280;23832;43.216;27.946;2022-12-18T01:58:46;101569.78;;;16.23;92.72
38022;BME280;23832;43.216;27.946;2022-12-18T02:00:50;101561.81;;;16.23;92.78
38022;BME280;23832;43.216;27.946;2022-12-18T02:02:51;101567.13;;;16.23;92.86
38022;BME280;23832;43.216;27.946;2022-12-18T02:04:53;101561.16;;;16.21;92.71
38022;BME280;23832;43.216;27.946;2022-12-18T02:06:57;101557.69;;;16.20;92.72
38022;BME280;23832;43.216;27.946;2022-12-18T02:09:02;101558.72;;;16.19;92.88
38022;BME280;23832;43.216;27.946;2022-12-18T02:11:10;101545.75;;;16.16;92.19
38022;BME280;23832;43.216;27.946;2022-12-18T02:13:18;101556.41;;;16.16;92.44
38022;BME280;23832;43.216;27.946;2022-12-18T02:15:24;101559.25;;;16.14;92.26
38022;BME280;23832;43.216;27.946;2022-12-18T02:17:28;101567.41;;;16.13;92.76
38022;BME280;23832;43.216;27.946;2022-12-18T02:19:38;101565.78;;;16.12;92.09
38022;BME280;23832;43.216;27.946;2022-12-18T02:21:44;101562.50;;;16.10;91.52
38022;BME280;23832;43.216;27.946;2022-12-18T02:23:49;101558.19;;;16.09;92.03
38022;BME280;23832;43.216;27.946;2022-12-18T02:26:06;101562.84;;;16.07;91.98
38022;BME280;23832;43.216;27.946;2022-12-18T02:28:11;101570.19;;;16.05;92.02
38022;BME280;23832;43.216;27.946;2022-12-18T02:30:14;101563.22;;;16.04;91.83
38022;BME280;23832;43.216;27.946;2022-12-18T02:32:18;101568.53;;;16.04;92.41
38022;BME280;23832;43.216;27.946;2022-12-18T02:34:23;101580.19;;;16.03;92.47
38022;BME280;23832;43.216;27.946;2022-12-18T02:36:27;101585.50;;;16.03;92.32
38022;BME280;23832;43.216;27.946;2022-12-18T02:38:29;101597.16;;;16.02;92.07
38022;BME280;23832;43.216;27.946;2022-12-18T02:40:32;101604.31;;;16.01;91.86
38022;BME280;23832;43.216;27.946;2022-12-18T02:42:35;101605.34;;;16.00;91.57
38022;BME280;23832;43.216;27.946;2022-12-18T02:44:41;101600.16;;;15.99;91.73
38022;BME280;23832;43.216;27.946;2022-12-18T02:46:44;101607.31;;;15.98;91.61
38022;BME280;23832;43.216;27.946;2022-12-18T02:48:47;101622.47;;;15.98;91.53
38022;BME280;23832;43.216;27.946;2022-12-18T02:50:51;101625.13;;;15.98;91.57
38022;BME280;23832;43.216;27.946;2022-12-18T02:53:00;101624.50;;;15.96;91.30
38022;BME280;23832;43.216;27.946;2022-12-18T02:55:08;101628.97;;;15.95;91.13
38022;BME280;23832;43.216;27.946;2022-12-18T02:57:14;101639.81;;;15.94;90.34
38022;BME280;23832;43.216;27.946;2022-12-18T02:59:19;101632.03;;;15.92;89.75
38022;BME280;23832;43.216;27.946;2022-12-18T03:01:25;101624.88;;;15.93;89.72
38022;BME280;23832;43.216;27.946;2022-12-18T03:03:30;101623.38;;;15.90;89.92
38022;BME280;23832;43.216;27.946;2022-12-18T03:05:36;101612.94;;;15.88;90.27
38022;BME280;23832;43.216;27.946;2022-12-18T03:07:41;101618.25;;;15.88;90.35
38022;BME280;23832;43.216;27.946;2022-12-18T03:09:44;101622.09;;;15.86;90.06
38022;BME280;23832;43.216;27.946;2022-12-18T03:11:51;101626.41;;;15.87;90.27
38022;BME280;23832;43.216;27.946;2022-12-18T03:14:12;101627.63;;;15.84;90.13
38022;BME280;23832;43.216;27.946;2022-12-18T03:16:19;101620.66;;;15.83;90.61
38022;BME280;23832;43.216;27.946;2022-12-18T03:18:25;101610.00;;;15.83;90.91
38022;BME280;23832;43.216;27.946;2022-12-18T03:20:29;101612.00;;;15.81;90.87
38022;BME280;23832;43.216;27.946;2022-12-18T03:22:32;101617.31;;;15.81;90.60
38022;BME280;23832;43.216;27.946;2022-12-18T03:24:35;101615.69;;;15.80;90.91
38022;BME280;23832;43.216;27.946;2022-12-18T03:26:40;101618.34;;;15.80;90.54
38022;BME280;23832;43.216;27.946;2022-12-18T03:28:43;101616.06;;;15.77;90.00
38022;BME280;23832;43.216;27.946;2022-12-18T03:30:47;101614.41;;;15.76;90.06
38022;BME280;23832;43.216;27.946;2022-12-18T03:32:54;101622.56;;;15.75;90.31
38022;BME280;23832;43.216;27.946;2022-12-18T03:34:58;101618.25;;;15.74;90.59
38022;BME280;23832;43.216;27.946;2022-12-18T03:37:04;101621.09;;;15.72;91.27
38022;BME280;23832;43.216;27.946;2022-12-18T03:39:09;101626.41;;;15.72;91.52
38022;BME280;23832;43.216;27.946;2022-12-18T03:41:13;101629.06;;;15.72;91.78
38022;BME280;23832;43.216;27.946;2022-12-18T03:43:18;101639.69;;;15.72;91.85
38022;BME280;23832;43.216;27.946;2022-12-18T03:45:23;101645.00;;;15.72;92.09
38022;BME280;23832;43.216;27.946;2022-12-18T03:47:27;101654.00;;;15.71;92.23
38022;BME280;23832;43.216;27.946;2022-12-18T03:49:32;101653.34;;;15.69;91.61
38022;BME280;23832;43.216;27.946;2022-12-18T03:51:37;101651.53;;;15.70;91.46
38022;BME280;23832;43.216;27.946;2022-12-18T03:53:42;101655.19;;;15.69;90.82
38022;BME280;23832;43.216;27.946;2022-12-18T03:55:46;101658.03;;;15.67;90.33
38022;BME280;23832;43.216;27.946;2022-12-18T03:57:49;101660.88;;;15.66;90.03
38022;BME280;23832;43.216;27.946;2022-12-18T03:59:54;101673.34;;;15.65;89.90
38022;BME280;23832;43.216;27.946;2022-12-18T04:01:57;101683.97;;;15.65;89.28
38022;BME280;23832;43.216;27.946;2022-12-18T04:04:01;101696.59;;;15.63;89.20
38022;BME280;23832;43.216;27.946;2022-12-18T04:06:05;101697.59;;;15.62;88.15
38022;BME280;23832;43.216;27.946;2022-12-18T04:08:07;101716.41;;;15.60;87.64
38022;BME280;23832;43.216;27.946;2022-12-18T04:10:12;101720.03;;;15.59;87.24
38022;BME280;23832;43.216;27.946;2022-12-18T04:12:15;101727.19;;;15.59;86.84
38022;BME280;23832;43.216;27.946;2022-12-18T04:14:17;101728.19;;;15.58;86.55
38022;BME280;23832;43.216;27.946;2022-12-18T04:16:19;101736.16;;;15.58;86.06
38022;BME280;23832;43.216;27.946;2022-12-18T04:18:20;101733.50;;;15.58;85.34
38022;BME280;23832;43.216;27.946;2022-12-18T04:20:22;101740.66;;;15.57;85.08
38022;BME280;23832;43.216;27.946;2022-12-18T04:22:25;101744.31;;;15.56;84.52
38022;BME280;23832;43.216;27.946;2022-12-18T04:24:27;101759.44;;;15.56;83.35
38022;BME280;23832;43.216;27.946;2022-12-18T04:26:28;101750.81;;;15.54;82.37
38022;BME280;23832;43.216;27.946;2022-12-18T04:28:31;101763.44;;;15.52;81.91
38022;BME280;23832;43.216;27.946;2022-12-18T04:30:33;101764.47;;;15.51;81.36
38022;BME280;23832;43.216;27.946;2022-12-18T04:32:35;101765.66;;;15.48;80.27
38022;BME280;23832;43.216;27.946;2022-12-18T04:34:36;101762.34;;;15.46;79.70
38022;BME280;23832;43.216;27.946;2022-12-18T04:36:38;101769.66;;;15.44;78.84
38022;BME280;23832;43.216;27.946;2022-12-18T04:38:41;101766.34;;;15.42;77.86
38022;BME280;23832;43.216;27.946;2022-12-18T04:40:43;101773.69;;;15.40;77.14
38022;BME280;23832;43.216;27.946;2022-12-18T04:42:45;101783.81;;;15.37;76.61
38022;BME280;23832;43.216;27.946;2022-12-18T04:44:47;101798.09;;;15.36;76.06
38022;BME280;23832;43.216;27.946;2022-12-18T04:46:48;101796.63;;;15.33;75.92
38022;BME280;23832;43.216;27.946;2022-12-18T04:48:50;101799.47;;;15.31;75.66
38022;BME280;23832;43.216;27.946;2022-12-18T04:50:51;101799.66;;;15.30;75.43
38022;BME280;23832;43.216;27.946;2022-12-18T04:52:53;101801.47;;;15.29;74.97
38022;BME280;23832;43.216;27.946;2022-12-18T04:54:57;101809.63;;;15.28;74.10
38022;BME280;23832;43.216;27.946;2022-12-18T04:56:58;101812.63;;;15.25;73.54
38022;BME280;23832;43.216;27.946;2022-12-18T04:59:00;101820.78;;;15.23;73.71
38022;BME280;23832;43.216;27.946;2022-12-18T05:01:03;101817.28;;;15.23;73.04
38022;BME280;23832;43.216;27.946;2022-12-18T05:03:04;101819.47;;;15.19;72.23
38022;BME280;23832;43.216;27.946;2022-12-18T05:05:06;101820.44;;;15.18;71.67
38022;BME280;23832;43.216;27.946;2022-12-18T05:07:08;101823.47;;;15.15;70.25
38022;BME280;23832;43.216;27.946;2022-12-18T05:09:11;101829.13;;;15.12;70.18
38022;BME280;23832;43.216;27.946;2022-12-18T05:11:14;101842.59;;;15.11;71.25
38022;BME280;23832;43.216;27.946;2022-12-18T05:13:16;101851.53;;;15.10;73.27
38022;BME280;23832;43.216;27.946;2022-12-18T05:15:18;101848.06;;;15.09;73.25
38022;BME280;23832;43.216;27.946;2022-12-18T05:17:19;101853.53;;;15.08;72.54
38022;BME280;23832;43.216;27.946;2022-12-18T05:19:21;101860.03;;;15.05;72.25
38022;BME280;23832;43.216;27.946;2022-12-18T05:21:23;101863.69;;;15.04;72.56
38022;BME280;23832;43.216;27.946;2022-12-18T05:23:24;101862.03;;;15.03;72.85
38022;BME280;23832;43.216;27.946;2022-12-18T05:25:26;101866.53;;;15.02;73.32
38022;BME280;23832;43.216;27.946;2022-12-18T05:27:29;101873.50;;;15.03;73.62
38022;BME280;23832;43.216;27.946;2022-12-18T05:29:31;101872.66;;;15.03;73.48
38022;BME280;23832;43.216;27.946;2022-12-18T05:31:32;101894.91;;;15.02;72.37
38022;BME280;23832;43.216;27.946;2022-12-18T05:33:35;101894.25;;;15.00;71.67
38022;BME280;23832;43.216;27.946;2022-12-18T05:35:37;101899.06;;;14.96;71.16
38022;BME280;23832;43.216;27.946;2022-12-18T05:37:39;101897.59;;;14.94;70.40
38022;BME280;23832;43.216;27.946;2022-12-18T05:39:42;101908.53;;;14.91;70.43
38022;BME280;23832;43.216;27.946;2022-12-18T05:41:44;101913.19;;;14.89;70.42
38022;BME280;23832;43.216;27.946;2022-12-18T05:43:48;101910.06;;;14.85;70.16
38022;BME280;23832;43.216;27.946;2022-12-18T05:45:50;101917.38;;;14.83;69.66
38022;BME280;23832;43.216;27.946;2022-12-18T05:47:52;101922.19;;;14.80;69.04
38022;BME280;23832;43.216;27.946;2022-12-18T05:49:55;101920.69;;;14.77;68.42
38022;BME280;23832;43.216;27.946;2022-12-18T05:51:56;101926.69;;;14.71;67.90
38022;BME280;23832;43.216;27.946;2022-12-18T05:53:58;101943.78;;;14.68;67.97
38022;BME280;23832;43.216;27.946;2022-12-18T05:56:00;101949.25;;;14.67;67.71
38022;BME280;23832;43.216;27.946;2022-12-18T05:58:02;101957.53;;;14.64;67.44
38022;BME280;23832;43.216;27.946;2022-12-18T06:00:06;101961.34;;;14.61;67.06
38022;BME280;23832;43.216;27.946;2022-12-18T06:02:07;101961.53;;;14.60;66.75
38022;BME280;23832;43.216;27.946;2022-12-18T06:04:09;101971.31;;;14.59;66.30
38022;BME280;23832;43.216;27.946;2022-12-18T06:06:14;101973.63;;;14.54;65.98
38022;BME280;23832;43.216;27.946;2022-12-18T06:08:16;101981.59;;;14.54;65.63
38022;BME280;23832;43.216;27.946;2022-12-18T06:10:17;101985.41;;;14.52;65.30
38022;BME280;23832;43.216;27.946;2022-12-18T06:12:20;101993.53;;;14.50;65.25
38022;BME280;23832;43.216;27.946;2022-12-18T06:14:22;102006.16;;;14.48;65.04
38022;BME280;23832;43.216;27.946;2022-12-18T06:16:26;102015.13;;;14.47;65.22
38022;BME280;23832;43.216;27.946;2022-12-18T06:18:27;102018.72;;;14.46;65.28
38022;BME280;23832;43.216;27.946;2022-12-18T06:20:32;102035.47;;;14.46;64.99
38022;BME280;23832;43.216;27.946;2022-12-18T06:22:33;102049.63;;;14.47;65.26
38022;BME280;23832;43.216;27.946;2022-12-18T06:24:36;102058.41;;;14.47;65.22
38022;BME280;23832;43.216;27.946;2022-12-18T06:26:37;102058.41;;;14.47;64.75
38022;BME280;23832;43.216;27.946;2022-12-18T06:28:39;102058.41;;;14.47;64.34
38022;BME280;23832;43.216;27.946;2022-12-18T06:30:43;102073.50;;;14.47;64.45
38022;BME280;23832;43.216;27.946;2022-12-18T06:32:46;102079.75;;;14.46;64.59
38022;BME280;23832;43.216;27.946;2022-12-18T06:34:48;102084.38;;;14.44;64.06
38022;BME280;23832;43.216;27.946;2022-12-18T06:36:50;102089.84;;;14.42;64.12
38022;BME280;23832;43.216;27.946;2022-12-18T06:38:52;102096.97;;;14.42;64.04
38022;BME280;23832;43.216;27.946;2022-12-18T06:40:53;102103.28;;;14.41;64.09
38022;BME280;23832;43.216;27.946;2022-12-18T06:42:55;102097.47;;;14.37;63.81
38022;BME280;23832;43.216;27.946;2022-12-18T06:44:57;102107.09;;;14.38;64.18
38022;BME280;23832;43.216;27.946;2022-12-18T06:46:59;102105.41;;;14.37;64.37
38022;BME280;23832;43.216;27.946;2022-12-18T06:49:02;102105.28;;;14.39;64.37
38022;BME280;23832;43.216;27.946;2022-12-18T06:51:04;102107.09;;;14.38;64.38
38022;BME280;23832;43.216;27.946;2022-12-18T06:53:05;102106.09;;;14.39;64.49
38022;BME280;23832;43.216;27.946;2022-12-18T06:55:10;102114.91;;;14.40;64.71
38022;BME280;23832;43.216;27.946;2022-12-18T06:57:12;102115.91;;;14.39;64.71
38022;BME280;23832;43.216;27.946;2022-12-18T06:59:14;102107.94;;;14.39;64.87
38022;BME280;23832;43.216;27.946;2022-12-18T07:01:15;102120.19;;;14.40;64.81
38022;BME280;23832;43.216;27.946;2022-12-18T07:03:17;102125.50;;;14.40;64.91
38022;BME280;23832;43.216;27.946;2022-12-18T07:05:20;102129.81;;;14.41;65.56
38022;BME280;23832;43.216;27.946;2022-12-18T07:07:22;102126.16;;;14.42;65.88
38022;BME280;23832;43.216;27.946;2022-12-18T07:09:23;102135.50;;;14.46;66.33
38022;BME280;23832;43.216;27.946;2022-12-18T07:11:25;102128.06;;;14.50;66.91
38022;BME280;23832;43.216;27.946;2022-12-18T07:13:27;102128.72;;;14.52;66.49
38022;BME280;23832;43.216;27.946;2022-12-18T07:15:28;102133.69;;;14.55;65.93
38022;BME280;23832;43.216;27.946;2022-12-18T07:17:31;102140.66;;;14.56;65.59
38022;BME280;23832;43.216;27.946;2022-12-18T07:19:32;102134.50;;;14.55;65.47
38022;BME280;23832;43.216;27.946;2022-12-18T07:21:36;102150.13;;;14.58;67.40
38022;BME280;23832;43.216;27.946;2022-12-18T07:23:37;102155.94;;;14.62;68.33
38022;BME280;23832;43.216;27.946;2022-12-18T07:25:39;102152.13;;;14.64;67.96
38022;BME280;23832;43.216;27.946;2022-12-18T07:27:41;102168.75;;;14.66;67.35
38022;BME280;23832;43.216;27.946;2022-12-18T07:29:43;102163.44;;;14.66;66.97
38022;BME280;23832;43.216;27.946;2022-12-18T07:31:46;102165.25;;;14.66;66.67
38022;BME280;23832;43.216;27.946;2022-12-18T07:33:48;102170.56;;;14.66;66.45
38022;BME280;23832;43.216;27.946;2022-12-18T07:35:50;102167.91;;;14.66;66.08
38022;BME280;23832;43.216;27.946;2022-12-18T07:37:53;102174.03;;;14.66;65.81
38022;BME280;23832;43.216;27.946;2022-12-18T07:39:55;102164.44;;;14.65;65.46
38022;BME280;23832;43.216;27.946;2022-12-18T07:41:57;102165.09;;;14.67;65.66
38022;BME280;23832;43.216;27.946;2022-12-18T07:44:16;102163.09;;;14.69;66.41
38022;BME280;23832;43.216;27.946;2022-12-18T07:46:17;102164.41;;;14.73;66.09
38022;BME280;23832;43.216;27.946;2022-12-18T07:48:19;102160.94;;;14.73;65.33
38022;BME280;23832;43.216;27.946;2022-12-18T07:50:21;102179.38;;;14.74;64.57
38022;BME280;23832;43.216;27.946;2022-12-18T07:52:24;102168.59;;;14.76;64.17
38022;BME280;23832;43.216;27.946;2022-12-18T07:54:27;102168.91;;;14.73;63.75
38022;BME280;23832;43.216;27.946;2022-12-18T07:56:28;102174.22;;;14.73;63.86
38022;BME280;23832;43.216;27.946;2022-12-18T07:58:30;102171.53;;;14.73;64.22
38022;BME280;23832;43.216;27.946;2022-12-18T08:00:32;102166.94;;;14.75;64.06
38022;BME280;23832;43.216;27.946;2022-12-18T08:02:34;102172.06;;;14.76;64.07
38022;BME280;23832;43.216;27.946;2022-12-18T08:04:36;102174.56;;;14.78;64.07
38022;BME280;23832;43.216;27.946;2022-12-18T08:06:38;102174.56;;;14.78;63.39
38022;BME280;23832;43.216;27.946;2022-12-18T08:08:39;102177.03;;;14.80;63.00
38022;BME280;23832;43.216;27.946;2022-12-18T08:10:44;102174.56;;;14.78;62.83
38022;BME280;23832;43.216;27.946;2022-12-18T08:12:48;102176.38;;;14.77;62.66
38022;BME280;23832;43.216;27.946;2022-12-18T08:14:50;102181.69;;;14.77;63.32
38022;BME280;23832;43.216;27.946;2022-12-18T08:16:52;102180.38;;;14.82;64.72
38022;BME280;23832;43.216;27.946;2022-12-18T08:18:53;102182.53;;;14.86;65.84
38022;BME280;23832;43.216;27.946;2022-12-18T08:20:57;102185.38;;;14.93;66.97
38022;BME280;23832;43.216;27.946;2022-12-18T08:22:58;102186.53;;;14.98;66.78
38022;BME280;23832;43.216;27.946;2022-12-18T08:25:03;102188.72;;;15.03;66.63
38022;BME280;23832;43.216;27.946;2022-12-18T08:27:06;102191.84;;;15.07;65.95
38022;BME280;23832;43.216;27.946;2022-12-18T08:29:08;102191.53;;;15.10;66.04
38022;BME280;23832;43.216;27.946;2022-12-18T08:31:10;102186.91;;;15.12;65.35
38022;BME280;23832;43.216;27.946;2022-12-18T08:33:12;102193.69;;;15.14;64.56
38022;BME280;23832;43.216;27.946;2022-12-18T08:35:14;102196.34;;;15.14;64.07
38022;BME280;23832;43.216;27.946;2022-12-18T08:37:16;102187.56;;;15.14;63.93
38022;BME280;23832;43.216;27.946;2022-12-18T08:39:17;102181.41;;;15.13;63.27
38022;BME280;23832;43.216;27.946;2022-12-18T08:41:19;102178.75;;;15.13;62.89
38022;BME280;23832;43.216;27.946;2022-12-18T08:43:22;102201.00;;;15.12;62.69
38022;BME280;23832;43.216;27.946;2022-12-18T08:45:42;102182.59;;;15.11;62.07
38022;BME280;23832;43.216;27.946;2022-12-18T08:47:44;102190.69;;;15.09;61.61
38022;BME280;23832;43.216;27.946;2022-12-18T08:49:45;102196.34;;;15.06;61.22
38022;BME280;23832;43.216;27.946;2022-12-18T08:51:47;102196.03;;;15.01;60.48
38022;BME280;23832;43.216;27.946;2022-12-18T08:53:49;102186.69;;;14.97;60.44
38022;BME280;23832;43.216;27.946;2022-12-18T08:55:51;102197.00;;;14.92;60.35
38022;BME280;23832;43.216;27.946;2022-12-18T08:57:52;102193.81;;;14.88;60.32
38022;BME280;23832;43.216;27.946;2022-12-18T08:59:55;102186.38;;;14.84;60.51
38022;BME280;23832;43.216;27.946;2022-12-18T09:02:01;102183.03;;;14.82;60.78
38022;BME280;23832;43.216;27.946;2022-12-18T09:04:03;102189.31;;;14.81;61.13
38022;BME280;23832;43.216;27.946;2022-12-18T09:06:06;102188.66;;;14.79;60.96
38022;BME280;23832;43.216;27.946;2022-12-18T09:08:09;102195.97;;;14.76;60.88
38022;BME280;23832;43.216;27.946;2022-12-18T09:10:11;102189.81;;;14.76;61.00
38022;BME280;23832;43.216;27.946;2022-12-18T09:12:14;102190.66;;;14.76;61.05
38022;BME280;23832;43.216;27.946;2022-12-18T09:14:16;102188.31;;;14.73;60.96
38022;BME280;23832;43.216;27.946;2022-12-18T09:16:19;102194.63;;;14.72;60.78
38022;BME280;23832;43.216;27.946;2022-12-18T09:18:22;102176.38;;;14.69;60.67
38022;BME280;23832;43.216;27.946;2022-12-18T09:20:25;102175.72;;;14.67;60.79
38022;BME280;23832;43.216;27.946;2022-12-18T09:22:30;102179.34;;;14.66;61.02
38022;BME280;23832;43.216;27.946;2022-12-18T09:24:32;102192.63;;;14.66;62.25
38022;BME280;23832;43.216;27.946;2022-12-18T09:26:35;102194.28;;;14.67;63.17
38022;BME280;23832;43.216;27.946;2022-12-18T09:28:37;102190.63;;;14.68;63.87
38022;BME280;23832;43.216;27.946;2022-12-18T09:30:42;102181.69;;;14.69;63.75
38022;BME280;23832;43.216;27.946;2022-12-18T09:32:56;102185.00;;;14.71;63.36
38022;BME280;23832;43.216;27.946;2022-12-18T09:34:58;102184.31;;;14.69;62.75
38022;BME280;23832;43.216;27.946;2022-12-18T09:37:01;102193.28;;;14.68;62.53
38022;BME280;23832;43.216;27.946;2022-12-18T09:39:07;102186.63;;;14.64;62.11
38022;BME280;23832;43.216;27.946;2022-12-18T09:41:15;102184.13;;;14.63;62.20
38022;BME280;23832;43.216;27.946;2022-12-18T09:43:20;102185.31;;;14.60;61.63
38022;BME280;23832;43.216;27.946;2022-12-18T09:45:23;102188.41;;;14.56;61.63
38022;BME280;23832;43.216;27.946;2022-12-18T09:47:27;102197.38;;;14.55;61.84
38022;BME280;23832;43.216;27.946;2022-12-18T09:49:31;102192.25;;;14.53;61.91
38022;BME280;23832;43.216;27.946;2022-12-18T09:51:36;102187.09;;;14.52;61.88
38022;BME280;23832;43.216;27.946;2022-12-18T09:53:39;102190.75;;;14.51;61.95
38022;BME280;23832;43.216;27.946;2022-12-18T09:55:43;102181.13;;;14.50;62.13
38022;BME280;23832;43.216;27.946;2022-12-18T09:57:47;102176.81;;;14.48;62.14
38022;BME280;23832;43.216;27.946;2022-12-18T09:59:51;102180.28;;;14.49;62.53
38022;BME280;23832;43.216;27.946;2022-12-18T10:01:58;102180.13;;;14.51;62.59
38022;BME280;23832;43.216;27.946;2022-12-18T10:03:59;102182.63;;;14.52;62.91
38022;BME280;23832;43.216;27.946;2022-12-18T10:06:04;102181.47;;;14.55;63.11
38022;BME280;23832;43.216;27.946;2022-12-18T10:08:09;102175.69;;;14.59;63.45
38022;BME280;23832;43.216;27.946;2022-12-18T10:10:18;102171.56;;;14.65;64.12
38022;BME280;23832;43.216;27.946;2022-12-18T10:12:22;102185.31;;;14.68;63.46
38022;BME280;23832;43.216;27.946;2022-12-18T10:14:27;102192.97;;;14.71;63.36
38022;BME280;23832;43.216;27.946;2022-12-18T10:16:33;102176.72;;;14.74;63.56
38022;BME280;23832;43.216;27.946;2022-12-18T10:18:46;102179.03;;;14.77;63.17
38022;BME280;23832;43.216;27.946;2022-12-18T10:20:52;102169.91;;;14.80;62.97
38022;BME280;23832;43.216;27.946;2022-12-18T10:22:59;102168.09;;;14.81;62.30
38022;BME280;23832;43.216;27.946;2022-12-18T10:25:03;102183.03;;;14.82;62.16
38022;BME280;23832;43.216;27.946;2022-12-18T10:27:10;102183.84;;;14.82;62.38
38022;BME280;23832;43.216;27.946;2022-12-18T10:29:14;102188.03;;;14.85;62.31
38022;BME280;23832;43.216;27.946;2022-12-18T10:31:17;102190.50;;;14.86;62.08
38022;BME280;23832;43.216;27.946;2022-12-18T10:33:20;102187.03;;;14.86;61.72
38022;BME280;23832;43.216;27.946;2022-12-18T10:35:22;102187.03;;;14.86;61.83
38022;BME280;23832;43.216;27.946;2022-12-18T10:37:25;102190.50;;;14.86;62.06
38022;BME280;23832;43.216;27.946;2022-12-18T10:39:29;102195.47;;;14.89;62.00